createdAt,value
2022-07-27T00:00:58.447Z,1.85
2022-07-27T00:03:25.772Z,1.70
2022-07-27T00:05:52.988Z,1.65
2022-07-27T00:08:20.645Z,1.90
2022-07-27T00:10:47.989Z,1.80
2022-07-27T00:13:15.262Z,1.73
2022-07-27T00:15:42.734Z,1.70
2022-07-27T00:18:10.036Z,1.80
2022-07-27T00:20:37.398Z,1.67
2022-07-27T00:23:04.582Z,1.50
2022-07-27T00:25:31.804Z,1.70
2022-07-27T00:27:58.927Z,1.52
2022-07-27T00:30:26.419Z,1.63
2022-07-27T00:32:53.766Z,1.40
2022-07-27T00:35:21.166Z,1.70
2022-07-27T00:37:48.317Z,2.60
2022-07-27T00:40:15.653Z,1.38
2022-07-27T00:42:42.803Z,1.50
2022-07-27T00:45:10.089Z,1.63
2022-07-27T00:47:37.233Z,1.40
2022-07-27T00:50:04.840Z,1.40
2022-07-27T00:52:32.106Z,1.30
2022-07-27T00:54:59.793Z,1.60
2022-07-27T00:57:27.935Z,1.40
2022-07-27T00:59:55.122Z,1.38
2022-07-27T01:02:22.873Z,1.40
2022-07-27T01:04:53.572Z,1.45
2022-07-27T01:07:24.289Z,1.40
2022-07-27T01:09:58.162Z,1.52
2022-07-27T01:12:27.147Z,1.63
2022-07-27T01:14:55.268Z,1.48
2022-07-27T01:17:22.449Z,1.40
2022-07-27T01:19:49.680Z,1.70
2022-07-27T01:22:17.006Z,1.38
2022-07-27T01:24:44.182Z,1.70
2022-07-27T01:27:11.351Z,1.65
2022-07-27T01:29:38.668Z,1.48
2022-07-27T01:32:06.141Z,1.95
2022-07-27T01:34:36.070Z,1.60
2022-07-27T01:37:03.481Z,1.80
2022-07-27T01:39:31.026Z,2.00
2022-07-27T01:41:58.599Z,2.10
2022-07-27T01:44:25.750Z,1.85
2022-07-27T01:46:53.021Z,1.77
2022-07-27T01:49:20.406Z,1.95
2022-07-27T01:51:47.917Z,1.65
2022-07-27T01:54:15.226Z,2.15
2022-07-27T01:56:42.449Z,1.60
2022-07-27T01:59:15.863Z,1.67
2022-07-27T02:01:44.289Z,1.77
2022-07-27T02:04:11.545Z,1.80
2022-07-27T02:06:39.321Z,1.88
2022-07-27T02:09:06.538Z,1.70
2022-07-27T02:11:52.512Z,1.70
2022-07-27T02:14:21.230Z,1.70
2022-07-27T02:16:50.736Z,1.73
2022-07-27T02:19:18.290Z,1.70
2022-07-27T02:21:45.987Z,1.90
2022-07-27T02:24:13.138Z,1.80
2022-07-27T02:26:40.316Z,1.70
2022-07-27T02:29:07.682Z,1.70
2022-07-27T02:31:35.345Z,1.60
2022-07-27T02:34:02.527Z,1.75
2022-07-27T02:36:29.854Z,2.08
2022-07-27T02:38:57.613Z,1.83
2022-07-27T02:41:25.027Z,2.20
2022-07-27T02:43:52.229Z,1.83
2022-07-27T02:46:19.637Z,1.80
2022-07-27T02:48:46.964Z,2.25
2022-07-27T02:51:15.123Z,2.00
2022-07-27T02:53:42.588Z,1.52
2022-07-27T02:56:09.808Z,2.28
2022-07-27T02:58:37.598Z,2.25
2022-07-27T03:01:05.782Z,1.98
2022-07-27T03:03:36.786Z,1.83
2022-07-27T03:06:05.993Z,2.45
2022-07-27T03:08:33.477Z,2.20
2022-07-27T03:11:00.673Z,2.00
2022-07-27T03:13:28.890Z,1.80
2022-07-27T03:15:56.146Z,2.15
2022-07-27T03:18:23.381Z,2.20
2022-07-27T03:20:50.566Z,2.00
2022-07-27T03:23:20.933Z,2.40
2022-07-27T03:25:48.144Z,1.90
2022-07-27T03:28:15.278Z,1.98
2022-07-27T03:30:42.522Z,2.30
2022-07-27T03:33:09.643Z,1.90
2022-07-27T03:35:36.780Z,1.98
2022-07-27T03:38:04.023Z,1.92
2022-07-27T03:40:34.556Z,2.20
2022-07-27T03:43:01.727Z,2.10
2022-07-27T03:45:29.098Z,1.90
2022-07-27T03:47:57.154Z,2.25
2022-07-27T03:50:24.300Z,2.30
2022-07-27T03:52:52.056Z,2.08
2022-07-27T03:55:19.967Z,2.78
2022-07-27T03:57:47.122Z,2.30
2022-07-27T04:00:15.753Z,2.42
2022-07-27T04:02:43.608Z,2.88
2022-07-27T04:05:11.874Z,2.70
2022-07-27T04:07:39.349Z,2.28
2022-07-27T04:10:06.957Z,2.50
2022-07-27T04:12:38.686Z,2.58
2022-07-27T04:15:07.025Z,2.90
2022-07-27T04:17:54.918Z,2.65
2022-07-27T04:20:21.441Z,2.50
2022-07-27T04:22:49.397Z,2.40
2022-07-27T04:25:17.004Z,2.28
2022-07-27T04:27:44.193Z,2.75
2022-07-27T04:30:11.447Z,2.65
2022-07-27T04:32:38.819Z,2.28
2022-07-27T04:35:06.699Z,2.40
2022-07-27T04:37:34.164Z,2.67
2022-07-27T04:40:01.511Z,2.47
2022-07-27T04:42:29.917Z,2.50
2022-07-27T04:44:57.476Z,2.40
2022-07-27T04:47:24.685Z,2.33
2022-07-27T04:49:51.889Z,2.80
2022-07-27T04:52:19.235Z,2.40
2022-07-27T04:54:53.824Z,2.15
2022-07-27T04:57:22.953Z,2.50
2022-07-27T04:59:50.115Z,1.92
2022-07-27T05:02:17.529Z,2.20
2022-07-27T05:04:44.771Z,2.65
2022-07-27T05:07:11.923Z,2.50
2022-07-27T05:09:39.099Z,3.42
2022-07-27T05:12:06.303Z,3.33
2022-07-27T05:14:33.434Z,3.58
2022-07-27T05:17:00.640Z,3.80
2022-07-27T05:19:40.151Z,3.65
2022-07-27T05:22:08.215Z,3.67
2022-07-27T05:24:35.351Z,3.67
2022-07-27T05:27:02.460Z,4.07
2022-07-27T05:29:29.684Z,3.97
2022-07-27T05:31:56.955Z,3.92
2022-07-27T05:34:24.124Z,4.00
2022-07-27T05:36:51.298Z,4.20
2022-07-27T05:39:18.806Z,4.57
2022-07-27T05:41:46.239Z,4.05
2022-07-27T05:44:16.103Z,4.03
2022-07-27T05:46:43.406Z,4.60
2022-07-27T05:49:11.940Z,5.00
2022-07-27T05:51:39.538Z,4.53
2022-07-27T05:54:06.835Z,4.90
2022-07-27T05:56:35.372Z,4.70
2022-07-27T05:59:06.778Z,4.70
2022-07-27T06:01:34.650Z,4.55
2022-07-27T06:04:01.985Z,4.80
2022-07-27T06:06:47.644Z,4.93
2022-07-27T06:09:15.161Z,5.07
2022-07-27T06:11:42.633Z,4.57
2022-07-27T06:14:10.035Z,4.88
2022-07-27T06:16:37.615Z,4.82
2022-07-27T06:19:06.072Z,5.00
2022-07-27T06:21:33.263Z,4.53
2022-07-27T06:24:00.481Z,4.50
2022-07-27T06:26:27.743Z,4.32
2022-07-27T06:28:58.773Z,4.40
2022-07-27T06:31:35.287Z,4.60
2022-07-27T06:34:04.031Z,4.28
2022-07-27T06:36:39.803Z,3.92
2022-07-27T06:39:07.008Z,4.25
2022-07-27T06:41:34.653Z,4.15
2022-07-27T06:44:01.927Z,4.40
2022-07-27T06:46:29.228Z,4.00
2022-07-27T06:48:56.826Z,4.03
2022-07-27T06:51:24.651Z,4.70
2022-07-27T06:53:53.250Z,4.35
2022-07-27T06:56:21.316Z,4.00
2022-07-27T06:58:49.183Z,3.90
2022-07-27T07:01:16.413Z,4.00
2022-07-27T07:03:43.594Z,4.40
2022-07-27T07:06:11.132Z,3.92
2022-07-27T07:08:38.261Z,4.18
2022-07-27T07:11:05.440Z,4.00
2022-07-27T07:13:37.228Z,3.88
2022-07-27T07:16:06.021Z,4.38
2022-07-27T07:18:33.219Z,3.90
2022-07-27T07:21:01.625Z,4.40
2022-07-27T07:23:28.771Z,3.60
2022-07-27T07:25:55.950Z,3.40
2022-07-27T07:28:23.127Z,4.07
2022-07-27T07:30:50.485Z,3.65
2022-07-27T07:33:17.660Z,3.30
2022-07-27T07:36:12.376Z,3.50
2022-07-27T07:38:31.939Z,3.28
2022-07-27T07:41:00.189Z,3.40
2022-07-27T07:43:27.358Z,3.33
2022-07-27T07:45:55.292Z,3.42
2022-07-27T07:48:22.851Z,3.17
2022-07-27T07:50:51.645Z,3.53
2022-07-27T07:53:21.141Z,3.83
2022-07-27T07:55:48.349Z,3.38
2022-07-27T07:58:15.690Z,3.35
2022-07-27T08:00:43.821Z,3.15
2022-07-27T08:03:11.115Z,3.75
2022-07-27T08:05:38.513Z,3.70
2022-07-27T08:08:05.853Z,3.38
2022-07-27T08:10:33.107Z,3.65
2022-07-27T08:13:00.257Z,3.55
2022-07-27T08:15:40.122Z,3.20
2022-07-27T08:18:07.582Z,3.40
2022-07-27T08:20:35.180Z,3.38
2022-07-27T08:23:02.384Z,3.30
2022-07-27T08:25:29.667Z,3.30
2022-07-27T08:27:56.814Z,3.35
2022-07-27T08:30:24.555Z,3.13
2022-07-27T08:33:01.583Z,3.63
2022-07-27T08:35:29.461Z,3.33
2022-07-27T08:37:56.622Z,3.28
2022-07-27T08:40:41.745Z,3.63
2022-07-27T08:43:11.217Z,3.08
2022-07-27T08:45:39.202Z,3.00
2022-07-27T08:48:06.606Z,2.97
2022-07-27T08:50:35.232Z,3.20
2022-07-27T08:53:03.893Z,3.00
2022-07-27T08:55:35.315Z,3.00
2022-07-27T08:58:03.697Z,3.63
2022-07-27T09:00:31.825Z,3.38
2022-07-27T09:02:59.229Z,3.47
2022-07-27T09:05:28.363Z,3.45
2022-07-27T09:08:11.584Z,3.30
2022-07-27T09:10:39.942Z,3.30
2022-07-27T09:13:26.755Z,3.25
2022-07-27T09:18:45.360Z,2.97
2022-07-27T09:21:17.283Z,3.08
2022-07-27T09:23:54.774Z,3.17
2022-07-27T09:26:37.280Z,3.42
2022-07-27T09:29:08.987Z,3.10
2022-07-27T09:31:46.682Z,3.63
2022-07-27T09:34:14.507Z,3.30
2022-07-27T09:36:52.776Z,2.83
2022-07-27T09:39:20.727Z,2.97
2022-07-27T09:41:52.702Z,3.08
2022-07-27T09:44:42.357Z,3.58
2022-07-27T09:47:26.731Z,3.20
2022-07-27T09:50:14.648Z,2.80
2022-07-27T09:52:41.906Z,3.45
2022-07-27T09:55:09.159Z,2.97
2022-07-27T09:57:56.325Z,3.90
2022-07-27T10:00:24.078Z,3.60
2022-07-27T10:02:52.415Z,3.40
2022-07-27T10:05:21.642Z,4.07
2022-07-27T10:07:49.496Z,3.55
2022-07-27T10:10:17.225Z,3.20
2022-07-27T10:12:46.061Z,3.17
2022-07-27T10:15:16.632Z,2.88
2022-07-27T10:17:45.293Z,2.60
2022-07-27T10:20:14.443Z,2.60
2022-07-27T10:22:55.690Z,2.90
2022-07-27T10:25:24.100Z,2.88
2022-07-27T10:28:09.282Z,3.10
2022-07-27T10:30:36.710Z,2.47
2022-07-27T10:33:12.868Z,3.00
2022-07-27T10:35:40.118Z,2.80
2022-07-27T10:38:16.595Z,2.35
2022-07-27T10:40:44.253Z,2.40
2022-07-27T10:43:21.809Z,1.70
2022-07-27T10:46:01.815Z,2.25
2022-07-27T10:48:48.892Z,2.13
2022-07-27T10:51:17.228Z,2.58
2022-07-27T10:56:46.085Z,2.60
2022-07-27T10:59:13.297Z,2.33
2022-07-27T11:01:57.332Z,2.03
2022-07-27T11:04:25.033Z,2.10
2022-07-27T11:07:23.457Z,2.53
2022-07-27T11:12:31.410Z,1.77
2022-07-27T11:14:58.928Z,2.15
2022-07-27T11:20:15.640Z,2.40
2022-07-27T11:23:26.500Z,2.58
2022-07-27T11:25:30.120Z,2.10
2022-07-27T11:27:57.465Z,2.28
2022-07-27T11:30:26.337Z,2.00
2022-07-27T11:32:53.737Z,2.00
2022-07-27T11:35:21.074Z,2.10
2022-07-27T11:38:05.785Z,1.92
2022-07-27T11:43:39.949Z,1.70
2022-07-27T11:46:16.042Z,1.85
2022-07-27T11:49:06.097Z,2.00
2022-07-27T11:51:38.739Z,2.25
2022-07-27T11:54:26.169Z,1.70
2022-07-27T11:56:55.202Z,2.22
2022-07-27T11:59:23.463Z,1.80
2022-07-27T12:01:50.622Z,2.00
2022-07-27T12:04:25.225Z,1.92
2022-07-27T12:06:55.461Z,1.63
2022-07-27T12:09:22.774Z,2.00
2022-07-27T12:12:01.084Z,2.00
2022-07-27T12:14:50.812Z,2.53
2022-07-27T12:17:20.027Z,1.48
2022-07-27T12:19:54.663Z,2.00
2022-07-27T12:22:29.224Z,1.63
2022-07-27T12:24:57.239Z,1.60
2022-07-27T12:27:26.356Z,1.73
2022-07-27T12:29:57.210Z,2.03
2022-07-27T12:32:24.745Z,2.05
2022-07-27T12:34:52.150Z,1.90
2022-07-27T12:37:19.595Z,1.90
2022-07-27T12:39:47.130Z,1.73
2022-07-27T12:42:15.116Z,1.63
2022-07-27T12:44:43.714Z,1.73
2022-07-27T12:47:29.591Z,2.00
2022-07-27T12:50:00.657Z,1.83
2022-07-27T12:52:28.201Z,1.70
2022-07-27T12:54:55.381Z,1.60
2022-07-27T12:57:46.305Z,1.63
2022-07-27T13:00:18.121Z,1.75
2022-07-27T13:02:46.332Z,1.75
2022-07-27T13:05:14.703Z,1.88
2022-07-27T13:07:43.206Z,1.52
2022-07-27T13:10:11.386Z,1.40
2022-07-27T13:12:39.017Z,1.70
2022-07-27T13:15:07.177Z,1.52
2022-07-27T13:17:34.912Z,1.73
2022-07-27T13:20:02.550Z,1.58
2022-07-27T13:22:29.737Z,1.55
2022-07-27T13:24:56.901Z,1.52
2022-07-27T13:27:24.121Z,1.30
2022-07-27T13:29:51.253Z,2.53
2022-07-27T13:32:18.585Z,1.67
2022-07-27T13:34:45.849Z,1.50
2022-07-27T13:37:12.963Z,1.55
2022-07-27T13:39:40.083Z,1.30
2022-07-27T13:42:07.269Z,1.50
2022-07-27T13:45:02.146Z,1.63
2022-07-27T13:47:21.539Z,1.30
2022-07-27T13:49:48.725Z,1.40
2022-07-27T13:52:16.095Z,1.45
2022-07-27T13:54:43.391Z,1.50
2022-07-27T13:57:10.529Z,1.58
2022-07-27T13:59:37.746Z,1.92
2022-07-27T14:02:05.123Z,1.63
2022-07-27T14:04:35.669Z,1.60
2022-07-27T14:07:03.123Z,1.50
2022-07-27T14:09:48.735Z,1.30
2022-07-27T14:12:16.048Z,1.80
2022-07-27T14:14:43.243Z,1.42
2022-07-27T14:17:10.403Z,1.73
2022-07-27T14:19:37.737Z,1.38
2022-07-27T14:22:04.968Z,1.33
2022-07-27T14:24:37.587Z,1.48
2022-07-27T14:27:06.472Z,1.60
2022-07-27T14:29:34.243Z,1.48
2022-07-27T14:32:01.901Z,1.35
2022-07-27T14:34:29.217Z,1.60
2022-07-27T14:36:56.500Z,1.60
2022-07-27T14:39:23.681Z,1.52
2022-07-27T14:41:50.941Z,1.50
2022-07-27T14:44:18.764Z,1.58
2022-07-27T14:46:46.765Z,1.40
2022-07-27T14:49:17.179Z,1.30
2022-07-27T14:51:44.638Z,1.45
2022-07-27T14:54:11.837Z,1.52
2022-07-27T14:56:39.022Z,1.27
2022-07-27T14:59:06.227Z,1.60
2022-07-27T15:01:33.504Z,1.40
2022-07-27T15:04:00.893Z,1.40
2022-07-27T15:06:28.071Z,1.30
2022-07-27T15:08:55.228Z,1.40
2022-07-27T15:11:22.352Z,1.35
2022-07-27T15:13:49.659Z,1.30
2022-07-27T15:16:16.906Z,1.55
2022-07-27T15:18:44.717Z,1.40
2022-07-27T15:21:14.004Z,1.48
2022-07-27T15:23:42.273Z,1.30
2022-07-27T15:26:09.552Z,1.67
2022-07-27T15:28:36.826Z,1.40
2022-07-27T15:31:04.943Z,1.50
2022-07-27T15:33:32.204Z,1.30
2022-07-27T15:35:59.362Z,1.60
2022-07-27T15:38:26.528Z,1.75
2022-07-27T15:40:53.806Z,1.35
2022-07-27T15:43:20.955Z,1.38
2022-07-27T15:45:49.925Z,1.50
2022-07-27T15:48:18.002Z,1.35
2022-07-27T15:50:50.294Z,1.20
2022-07-27T15:53:18.514Z,1.23
2022-07-27T15:55:45.936Z,1.60
2022-07-27T15:58:17.722Z,1.20
2022-07-27T16:00:45.283Z,1.30
2022-07-27T16:03:12.929Z,1.40
2022-07-27T16:05:42.709Z,1.80
2022-07-27T16:08:10.705Z,1.70
2022-07-27T16:10:38.559Z,1.33
2022-07-27T16:13:06.044Z,1.60
2022-07-27T16:15:52.105Z,1.40
2022-07-27T16:18:19.441Z,1.45
2022-07-27T16:20:46.766Z,1.10
2022-07-27T16:23:17.819Z,1.23
2022-07-27T16:26:07.524Z,1.45
2022-07-27T16:28:39.825Z,1.50
2022-07-27T16:31:07.953Z,1.50
2022-07-27T16:33:35.214Z,1.50
2022-07-27T16:36:02.653Z,1.85
2022-07-27T16:38:30.175Z,1.30
2022-07-27T16:40:57.341Z,1.40
2022-07-27T16:43:36.325Z,1.70
2022-07-27T16:46:07.162Z,1.40
2022-07-27T16:48:41.907Z,1.27
2022-07-27T16:51:10.987Z,1.30
2022-07-27T16:53:42.324Z,1.40
2022-07-27T16:56:09.716Z,1.30
2022-07-27T16:58:37.242Z,1.20
2022-07-27T17:01:05.087Z,1.48
2022-07-27T17:03:32.396Z,1.30
2022-07-27T17:06:05.184Z,1.30
2022-07-27T17:08:33.458Z,1.17
2022-07-27T17:11:02.269Z,1.40
2022-07-27T17:13:33.447Z,1.38
2022-07-27T17:16:01.594Z,1.30
2022-07-27T17:18:28.959Z,1.20
2022-07-27T17:20:56.245Z,1.30
2022-07-27T17:23:23.473Z,1.15
2022-07-27T17:25:50.728Z,1.15
2022-07-27T17:28:17.999Z,1.20
2022-07-27T17:30:45.184Z,1.40
2022-07-27T17:33:12.336Z,1.15
2022-07-27T17:35:39.512Z,1.40
2022-07-27T17:38:07.952Z,1.30
2022-07-27T17:40:35.950Z,1.38
2022-07-27T17:43:03.092Z,1.35
2022-07-27T17:45:30.338Z,1.00
2022-07-27T17:47:57.493Z,1.58
2022-07-27T17:50:24.656Z,1.35
2022-07-27T17:52:52.423Z,1.40
2022-07-27T17:55:19.543Z,1.95
2022-07-27T17:57:46.679Z,1.30
2022-07-27T18:00:14.206Z,1.58
2022-07-27T18:02:41.348Z,1.40
2022-07-27T18:05:08.663Z,1.30
2022-07-27T18:07:39.125Z,1.20
2022-07-27T18:10:08.281Z,1.30
2022-07-27T18:12:35.593Z,1.38
2022-07-27T18:15:21.362Z,1.33
2022-07-27T18:17:48.545Z,1.40
2022-07-27T18:20:15.905Z,1.50
2022-07-27T18:22:43.030Z,1.27
2022-07-27T18:25:10.534Z,1.20
2022-07-27T18:27:37.983Z,3.45
2022-07-27T18:30:05.931Z,2.70
2022-07-27T18:32:33.567Z,1.73
2022-07-27T18:35:01.675Z,1.77
2022-07-27T18:37:29.063Z,1.77
2022-07-27T18:39:56.216Z,1.45
2022-07-27T18:42:23.573Z,1.13
2022-07-27T18:44:50.767Z,1.67
2022-07-27T18:47:17.908Z,1.33
2022-07-27T18:49:45.427Z,1.30
2022-07-27T18:52:12.558Z,1.52
2022-07-27T18:54:39.694Z,1.60
2022-07-27T18:57:06.853Z,1.77
2022-07-27T18:59:38.172Z,1.40
2022-07-27T19:02:08.668Z,1.60
2022-07-27T19:04:36.018Z,1.20
2022-07-27T19:07:06.349Z,1.67
2022-07-27T19:09:33.974Z,1.60
2022-07-27T19:12:05.886Z,1.55
2022-07-27T19:14:36.929Z,1.58
2022-07-27T19:17:04.255Z,1.48
2022-07-27T19:19:31.746Z,1.50
2022-07-27T19:21:59.146Z,1.42
2022-07-27T19:24:26.378Z,1.55
2022-07-27T19:26:53.508Z,1.77
2022-07-27T19:29:22.574Z,1.70
2022-07-27T19:31:49.765Z,1.80
2022-07-27T19:34:16.990Z,1.50
2022-07-27T19:36:44.130Z,1.50
2022-07-27T19:39:11.654Z,1.50
2022-07-27T19:41:38.927Z,1.80
2022-07-27T19:44:06.204Z,1.60
2022-07-27T19:46:33.528Z,1.73
2022-07-27T19:49:00.783Z,1.83
2022-07-27T19:51:27.930Z,1.60
2022-07-27T19:53:55.101Z,1.42
2022-07-27T19:56:22.259Z,1.52
2022-07-27T19:58:49.506Z,1.45
2022-07-27T20:01:17.072Z,1.50
2022-07-27T20:03:52.677Z,1.67
2022-07-27T20:06:22.056Z,1.42
2022-07-27T20:08:49.310Z,1.50
2022-07-27T20:11:16.529Z,1.63
2022-07-27T20:13:43.885Z,1.50
2022-07-27T20:16:11.310Z,1.80
2022-07-27T20:18:38.531Z,1.70
2022-07-27T20:21:22.327Z,1.40
2022-07-27T20:23:51.189Z,1.52
2022-07-27T20:26:18.406Z,1.80
2022-07-27T20:28:45.677Z,1.58
2022-07-27T20:31:12.885Z,1.73
2022-07-27T20:33:40.115Z,1.60
2022-07-27T20:36:07.509Z,1.60
2022-07-27T20:38:34.682Z,1.63
2022-07-27T20:41:01.815Z,1.40
2022-07-27T20:43:29.205Z,1.50
2022-07-27T20:45:57.335Z,1.38
2022-07-27T20:48:24.615Z,2.10
2022-07-27T20:50:51.840Z,1.27
2022-07-27T20:53:20.300Z,1.77
2022-07-27T20:55:47.777Z,1.30
2022-07-27T20:58:15.009Z,1.20
2022-07-27T21:00:42.169Z,1.60
2022-07-27T21:03:09.297Z,1.70
2022-07-27T21:05:36.545Z,1.55
2022-07-27T21:08:03.713Z,1.52
2022-07-27T21:10:30.883Z,1.67
2022-07-27T21:12:58.512Z,1.30
2022-07-27T21:15:33.661Z,1.63
2022-07-27T21:18:01.792Z,1.40
2022-07-27T21:20:29.236Z,1.60
2022-07-27T21:23:15.189Z,1.83
2022-07-27T21:25:44.059Z,1.60
2022-07-27T21:28:13.215Z,1.50
2022-07-27T21:30:45.531Z,1.60
2022-07-27T21:33:12.729Z,1.88
2022-07-27T21:35:39.918Z,1.60
2022-07-27T21:38:07.243Z,1.35
2022-07-27T21:40:34.529Z,1.80
2022-07-27T21:43:01.660Z,1.58
2022-07-27T21:45:29.050Z,1.40
2022-07-27T21:47:56.251Z,1.58
2022-07-27T21:50:23.430Z,1.88
2022-07-27T21:52:52.307Z,1.67
2022-07-27T21:55:22.940Z,1.67
2022-07-27T21:57:51.049Z,1.65
2022-07-27T22:00:23.852Z,1.58
2022-07-27T22:02:51.588Z,1.60
2022-07-27T22:05:18.863Z,1.95
2022-07-27T22:07:46.000Z,1.80
2022-07-27T22:10:13.127Z,1.52
2022-07-27T22:12:40.319Z,1.70
2022-07-27T22:15:07.945Z,1.40
2022-07-27T22:17:35.114Z,1.58
2022-07-27T22:20:13.384Z,1.48
2022-07-27T22:22:40.563Z,1.38
2022-07-27T22:25:07.871Z,1.70
2022-07-27T22:27:35.223Z,1.73
2022-07-27T22:30:02.810Z,1.52
2022-07-27T22:32:30.041Z,1.67
2022-07-27T22:34:57.214Z,1.60
2022-07-27T22:37:24.412Z,1.73
2022-07-27T22:39:51.602Z,1.48
2022-07-27T22:42:18.779Z,1.85
2022-07-27T22:44:45.937Z,1.60
2022-07-27T22:47:13.332Z,1.65
2022-07-27T22:49:40.460Z,1.80
2022-07-27T22:52:08.180Z,1.77
2022-07-27T22:54:36.531Z,1.60
2022-07-27T22:57:04.244Z,2.03
2022-07-27T22:59:31.392Z,1.70
2022-07-27T23:01:58.829Z,2.03
2022-07-27T23:04:26.033Z,1.77
2022-07-27T23:06:53.190Z,1.83
2022-07-27T23:09:20.417Z,2.33
2022-07-27T23:11:47.643Z,1.90
2022-07-27T23:14:15.269Z,1.92
2022-07-27T23:16:43.595Z,2.00
2022-07-27T23:19:11.362Z,1.75
2022-07-27T23:21:39.701Z,1.90
2022-07-27T23:24:09.739Z,1.75
2022-07-27T23:26:37.132Z,1.85
2022-07-27T23:29:04.307Z,1.95
2022-07-27T23:31:31.574Z,1.63
2022-07-27T23:33:58.895Z,1.90
2022-07-27T23:36:26.046Z,2.17
2022-07-27T23:38:53.193Z,1.92
2022-07-27T23:41:21.573Z,2.20
2022-07-27T23:43:48.826Z,1.90
2022-07-27T23:46:16.074Z,1.77
2022-07-27T23:48:43.811Z,1.80
2022-07-27T23:51:16.169Z,1.80
2022-07-27T23:53:43.321Z,1.63
2022-07-27T23:56:10.466Z,1.63
2022-07-27T23:58:38.832Z,2.00
